createdAt,value
2022-11-01T00:09:42.674Z,21.70
2022-11-01T00:19:48.373Z,21.90
2022-11-01T00:29:54.069Z,19.90
2022-11-01T00:39:59.794Z,21.90
2022-11-01T00:50:06.420Z,21.60
2022-11-01T01:00:15.848Z,20.50
2022-11-01T01:10:21.757Z,19.60
2022-11-01T01:20:27.904Z,20.30
2022-11-01T01:30:33.596Z,19.20
2022-11-01T01:40:39.216Z,19.10
2022-11-01T01:50:49.989Z,16.50
2022-11-01T02:00:56.152Z,16.70
2022-11-01T02:11:05.106Z,17.50
2022-11-01T02:21:30.119Z,16.90
2022-11-01T02:31:49.450Z,19.70
2022-11-01T02:42:03.447Z,19.10
2022-11-01T02:52:12.504Z,19.20
2022-11-01T03:02:39.450Z,19.60
2022-11-01T03:12:58.787Z,17.60
2022-11-01T03:23:06.365Z,19.60
2022-11-01T03:33:14.577Z,19.50
2022-11-01T03:43:22.687Z,19.90
2022-11-01T03:53:28.603Z,23.00
2022-11-01T04:03:34.442Z,22.30
2022-11-01T04:13:40.442Z,23.90
2022-11-01T04:23:47.284Z,21.00
2022-11-01T04:33:53.180Z,23.10
2022-11-01T04:44:00.122Z,21.70
2022-11-01T04:54:06.026Z,22.80
2022-11-01T05:04:11.718Z,21.80
2022-11-01T05:14:17.633Z,20.50
2022-11-01T05:24:23.910Z,18.70
2022-11-01T05:34:29.744Z,18.60
2022-11-01T05:44:35.588Z,18.00
2022-11-01T05:54:41.354Z,17.80
2022-11-01T06:04:47.022Z,19.20
2022-11-01T06:14:53.165Z,18.70
2022-11-01T06:24:58.860Z,21.80
2022-11-01T06:35:05.586Z,21.40
2022-11-01T06:45:12.297Z,21.40
2022-11-01T06:55:18.218Z,22.20
2022-11-01T07:05:24.036Z,21.70
2022-11-01T07:15:30.778Z,21.90
2022-11-01T07:25:36.754Z,22.00
2022-11-01T07:35:42.486Z,21.00
2022-11-01T07:45:48.354Z,19.90
2022-11-01T07:55:54.521Z,19.70
2022-11-01T08:06:00.212Z,21.50
2022-11-01T08:16:06.766Z,20.90
2022-11-01T08:26:12.494Z,20.10
2022-11-01T08:36:18.484Z,21.10
2022-11-01T08:46:24.634Z,20.30
2022-11-01T08:56:30.570Z,21.70
2022-11-01T09:06:36.626Z,24.00
2022-11-01T09:16:42.742Z,24.70
2022-11-01T09:26:48.379Z,28.00
2022-11-01T09:36:54.685Z,28.20
2022-11-01T09:47:04.265Z,27.80
2022-11-01T09:57:20.171Z,28.20
2022-11-01T10:07:33.920Z,30.10
2022-11-01T10:17:52.632Z,33.80
2022-11-01T10:28:06.799Z,28.70
2022-11-01T10:38:38.030Z,27.90
2022-11-01T10:48:50.025Z,31.90
2022-11-01T10:59:02.568Z,29.80
2022-11-01T11:09:18.742Z,29.60
2022-11-01T11:19:33.783Z,27.90
2022-11-01T11:29:48.606Z,30.60
2022-11-01T11:40:20.399Z,30.80
2022-11-01T11:50:33.047Z,31.40
2022-11-01T12:00:49.130Z,34.10
2022-11-01T12:11:00.165Z,31.50
2022-11-01T12:21:06.344Z,21.50
2022-11-01T12:31:16.536Z,21.80
2022-11-01T12:41:31.983Z,20.10
2022-11-01T12:51:43.599Z,22.40
2022-11-01T13:01:57.905Z,21.80
2022-11-01T13:12:11.002Z,20.00
2022-11-01T13:22:24.533Z,22.00
2022-11-01T13:32:36.870Z,21.20
2022-11-01T13:42:45.677Z,18.00
2022-11-01T13:52:58.748Z,16.90
2022-11-01T14:03:19.801Z,14.70
2022-11-01T14:13:40.452Z,17.80
2022-11-01T14:23:51.437Z,15.20
2022-11-01T14:34:00.324Z,14.80
2022-11-01T14:44:13.239Z,17.60
2022-11-01T14:54:24.551Z,17.80
2022-11-01T15:04:33.096Z,17.10
2022-11-01T15:14:41.494Z,17.90
2022-11-01T15:24:50.077Z,17.30
2022-11-01T15:34:57.651Z,15.90
2022-11-01T15:45:20.708Z,16.80
2022-11-01T15:55:29.875Z,18.40
2022-11-01T16:05:38.777Z,19.30
2022-11-01T16:16:01.499Z,24.10
2022-11-01T16:26:10.144Z,23.20
2022-11-01T16:36:42.050Z,24.20
2022-11-01T16:46:47.786Z,25.60
2022-11-01T16:56:55.847Z,60.90
2022-11-01T17:07:01.649Z,47.50
2022-11-01T17:17:12.260Z,43.90
2022-11-01T17:27:19.102Z,32.20
2022-11-01T17:37:26.841Z,48.30
2022-11-01T17:47:32.482Z,48.70
2022-11-01T17:57:38.345Z,47.90
2022-11-01T18:07:48.941Z,52.60
2022-11-01T18:18:07.725Z,65.00
2022-11-01T18:28:17.811Z,69.60
2022-11-01T18:38:29.972Z,85.40
2022-11-01T18:48:36.495Z,86.60
2022-11-01T18:58:42.658Z,93.70
2022-11-01T19:08:53.846Z,115.10
2022-11-01T19:19:00.998Z,122.50
2022-11-01T19:29:17.212Z,101.50
2022-11-01T19:39:32.493Z,113.60
2022-11-01T19:49:41.179Z,118.40
2022-11-01T19:59:47.478Z,119.40
2022-11-01T20:09:58.301Z,112.30
2022-11-01T20:20:04.642Z,95.80
2022-11-01T20:30:12.820Z,88.50
2022-11-01T20:40:21.465Z,79.50
2022-11-01T20:50:28.017Z,76.70
2022-11-01T21:00:34.213Z,63.80
2022-11-01T21:10:41.311Z,73.40
2022-11-01T21:20:49.656Z,74.80
2022-11-01T21:30:55.916Z,71.60
2022-11-01T21:41:01.999Z,64.70
2022-11-01T21:51:08.311Z,66.20
2022-11-01T22:01:14.095Z,56.10
2022-11-01T22:11:23.598Z,54.70
2022-11-01T22:21:29.896Z,58.00
2022-11-01T22:31:35.833Z,43.00
2022-11-01T22:41:42.738Z,43.80
2022-11-01T22:51:51.443Z,36.70
2022-11-01T23:02:02.691Z,38.60
2022-11-01T23:12:42.656Z,36.40
2022-11-01T23:22:48.546Z,38.30
2022-11-01T23:32:54.472Z,34.00
2022-11-01T23:43:00.278Z,31.10
2022-11-01T23:53:11.003Z,30.00
